Time;durP1;ratioP1;P1;durP2;ratioP2;P2;SDS_P1;SDS_P2;PMS_P1;PMS_P2;Temp;Humidity;BMP_temperature;BMP_pressure;BME280_temperature;BME280_humidity;BME280_pressure;Samples;Min_cycle;Max_cycle;Signal;HPM_P1;HPM_P2
2021/03/01 00:00:25;;;;;;;19.92;15.02;;;2.80;99.90;;;;;;5114764;28;20226;-42
2021/03/01 00:02:52;;;;;;;18.45;14.02;;;2.80;99.90;;;;;;5114799;28;20305;-41
2021/03/01 00:05:20;;;;;;;16.67;14.25;;;2.80;99.90;;;;;;5114471;28;20202;-41
2021/03/01 00:07:48;;;;;;;17.95;14.45;;;2.70;99.90;;;;;;5114529;28;20206;-42
2021/03/01 00:10:16;;;;;;;15.07;13.10;;;2.70;99.90;;;;;;5114275;28;20230;-42
2021/03/01 00:12:44;;;;;;;20.52;14.48;;;2.60;99.90;;;;;;5114366;28;20604;-40
2021/03/01 00:15:13;;;;;;;19.23;14.25;;;2.60;99.90;;;;;;5114480;28;20417;-40
2021/03/01 00:17:40;;;;;;;22.95;14.23;;;2.60;99.90;;;;;;5114275;28;20252;-41
2021/03/01 00:20:10;;;;;;;19.10;12.80;;;2.60;99.90;;;;;;5114116;28;20226;-41
2021/03/01 00:22:37;;;;;;;16.00;13.20;;;2.60;99.90;;;;;;5113973;28;20290;-41
2021/03/01 00:25:07;;;;;;;15.45;12.18;;;2.60;99.90;;;;;;5113988;28;20214;-41
2021/03/01 00:27:34;;;;;;;16.75;13.73;;;2.50;99.90;;;;;;5114170;28;20337;-41
2021/03/01 00:30:01;;;;;;;15.32;12.60;;;2.50;99.90;;;;;;5114030;28;20202;-41
2021/03/01 00:32:28;;;;;;;18.48;14.27;;;2.50;99.90;;;;;;5114181;28;20242;-40
2021/03/01 00:34:55;;;;;;;16.85;13.50;;;2.60;99.90;;;;;;5113887;28;20206;-44
2021/03/01 00:37:22;;;;;;;19.13;13.25;;;2.60;99.90;;;;;;5113923;28;20611;-44
2021/03/01 00:39:49;;;;;;;18.00;14.18;;;2.60;99.90;;;;;;5114097;28;20257;-42
2021/03/01 00:42:17;;;;;;;18.10;13.15;;;2.60;99.90;;;;;;5114030;28;20233;-42
2021/03/01 00:44:44;;;;;;;18.05;13.70;;;2.60;99.90;;;;;;5113687;28;20684;-43
2021/03/01 00:47:11;;;;;;;14.05;11.88;;;2.60;99.90;;;;;;5114031;28;20259;-42
2021/03/01 00:49:38;;;;;;;15.82;13.20;;;2.50;99.90;;;;;;5113603;28;20236;-42
2021/03/01 00:52:05;;;;;;;17.15;13.68;;;2.50;99.90;;;;;;5113549;28;20233;-41
2021/03/01 00:54:32;;;;;;;17.02;13.70;;;2.50;99.90;;;;;;5113392;28;20227;-42
2021/03/01 00:56:59;;;;;;;16.48;12.68;;;2.50;99.90;;;;;;5113496;28;20206;-43
2021/03/01 00:59:28;;;;;;;16.57;13.00;;;2.50;99.90;;;;;;5113470;27;20267;-40
2021/03/01 01:01:56;;;;;;;15.13;12.20;;;2.50;99.90;;;;;;5113309;28;20684;-39
2021/03/01 01:04:23;;;;;;;19.67;14.05;;;2.50;99.90;;;;;;5113581;28;20209;-39
2021/03/01 01:06:50;;;;;;;13.93;12.45;;;2.40;99.90;;;;;;5113145;28;20297;-39
2021/03/01 01:09:17;;;;;;;16.70;13.00;;;2.40;99.90;;;;;;5113531;28;20747;-40
2021/03/01 01:11:45;;;;;;;14.80;12.50;;;2.40;99.90;;;;;;5113146;28;20238;-39
2021/03/01 01:14:12;;;;;;;14.15;12.45;;;2.30;99.90;;;;;;5113049;28;20252;-39
2021/03/01 01:16:40;;;;;;;15.90;12.97;;;2.30;99.90;;;;;;5113121;28;20298;-39
2021/03/01 01:19:08;;;;;;;14.43;12.57;;;2.20;99.90;;;;;;5112928;28;20692;-39
2021/03/01 01:21:35;;;;;;;16.83;13.25;;;2.30;99.90;;;;;;5113271;28;20210;-39
2021/03/01 01:24:03;;;;;;;16.02;13.30;;;2.20;99.90;;;;;;5112956;28;20217;-39
2021/03/01 01:26:31;;;;;;;16.02;12.30;;;2.20;99.90;;;;;;5113084;28;20290;-39
2021/03/01 01:28:57;;;;;;;13.63;11.73;;;2.20;99.90;;;;;;5112907;28;20289;-39
2021/03/01 01:31:24;;;;;;;16.70;12.05;;;2.10;99.90;;;;;;5112965;28;20238;-39
2021/03/01 01:33:52;;;;;;;20.90;13.73;;;2.10;99.90;;;;;;5112855;28;20290;-40
2021/03/01 01:36:19;;;;;;;20.00;14.40;;;2.10;99.90;;;;;;5112799;28;20207;-39
2021/03/01 01:38:51;;;;;;;21.38;14.10;;;2.10;99.90;;;;;;5112905;28;20267;-39
2021/03/01 01:41:18;;;;;;;21.52;14.95;;;2.10;99.90;;;;;;5112732;28;20225;-39
2021/03/01 01:43:45;;;;;;;17.85;14.18;;;2.00;99.90;;;;;;5112857;28;20245;-43
2021/03/01 01:46:13;;;;;;;19.52;13.48;;;2.00;99.90;;;;;;5112623;28;20206;-42
2021/03/01 01:48:40;;;;;;;17.90;13.47;;;2.00;99.90;;;;;;5112609;28;20697;-41
2021/03/01 01:51:08;;;;;;;15.85;13.23;;;2.00;99.90;;;;;;5112847;28;20206;-40
2021/03/01 01:53:35;;;;;;;15.07;12.38;;;2.00;99.90;;;;;;5112755;28;20229;-39
2021/03/01 01:56:02;;;;;;;16.73;12.45;;;2.00;99.90;;;;;;5112590;28;20213;-40
2021/03/01 01:58:30;;;;;;;17.88;12.63;;;2.00;99.90;;;;;;5112477;28;20751;-40
2021/03/01 02:00:57;;;;;;;16.45;12.98;;;1.90;99.90;;;;;;5112290;28;20222;-41
2021/03/01 02:03:33;;;;;;;16.42;12.32;;;1.90;99.90;;;;;;5112673;28;20215;-43
2021/03/01 02:06:04;;;;;;;15.73;11.90;;;1.90;99.90;;;;;;5112769;28;20249;-41
2021/03/01 02:08:44;;;;;;;16.70;12.88;;;1.90;99.90;;;;;;5112618;28;20259;-41
2021/03/01 02:11:19;;;;;;;14.27;11.48;;;1.80;99.90;;;;;;5112176;28;20238;-44
2021/03/01 02:13:50;;;;;;;16.15;11.88;;;1.80;99.90;;;;;;5112487;28;20698;-40
2021/03/01 02:16:20;;;;;;;13.85;12.35;;;1.80;99.90;;;;;;5112511;28;20292;-41
2021/03/01 02:18:48;;;;;;;14.93;12.50;;;1.80;99.90;;;;;;5112237;28;20672;-43
2021/03/01 02:21:15;;;;;;;15.80;12.48;;;1.80;99.90;;;;;;5112291;28;20229;-40
2021/03/01 02:23:44;;;;;;;17.85;12.85;;;1.80;99.90;;;;;;5112233;28;20301;-40
2021/03/01 02:26:15;;;;;;;15.23;11.25;;;1.70;99.90;;;;;;5112783;28;20206;-42
2021/03/01 02:28:45;;;;;;;14.00;11.93;;;1.70;99.90;;;;;;5112417;28;20271;-40
2021/03/01 02:31:14;;;;;;;16.33;12.48;;;1.70;99.90;;;;;;5112290;28;20221;-40
2021/03/01 02:33:46;;;;;;;16.23;11.77;;;1.70;99.90;;;;;;5112194;28;20301;-41
2021/03/01 02:36:18;;;;;;;15.70;12.10;;;1.70;99.90;;;;;;5112176;28;20525;-40
2021/03/01 02:38:49;;;;;;;17.00;13.85;;;1.70;99.90;;;;;;5112189;28;20237;-40
2021/03/01 02:41:17;;;;;;;18.27;12.98;;;1.70;99.90;;;;;;5112333;28;20316;-40
2021/03/01 02:43:45;;;;;;;17.27;13.60;;;1.70;99.90;;;;;;5112169;28;20292;-42
2021/03/01 02:46:13;;;;;;;19.40;13.65;;;1.70;99.90;;;;;;5112100;28;20585;-44
2021/03/01 02:48:42;;;;;;;16.60;13.07;;;1.70;99.90;;;;;;5112089;28;20306;-42
2021/03/01 02:51:09;;;;;;;18.50;14.38;;;1.70;99.90;;;;;;5114865;28;20241;-42
2021/03/01 02:53:38;;;;;;;17.80;13.07;;;1.70;99.90;;;;;;5115853;28;20241;-42
2021/03/01 02:56:07;;;;;;;15.93;13.35;;;1.70;99.90;;;;;;5115908;28;20300;-40
2021/03/01 02:58:37;;;;;;;16.88;12.90;;;1.70;99.90;;;;;;5115902;28;20244;-40
2021/03/01 03:01:05;;;;;;;19.60;13.80;;;1.70;99.90;;;;;;5115708;28;20325;-41
2021/03/01 03:03:34;;;;;;;18.13;13.25;;;1.70;99.90;;;;;;5115771;28;20213;-40
2021/03/01 03:06:01;;;;;;;17.10;13.52;;;1.70;99.90;;;;;;5115986;28;20209;-40
2021/03/01 03:08:30;;;;;;;15.02;13.13;;;1.70;99.90;;;;;;5115599;28;20392;-40
2021/03/01 03:10:59;;;;;;;18.10;13.38;;;1.70;99.90;;;;;;5115543;28;20639;-42
2021/03/01 03:13:29;;;;;;;17.48;13.52;;;1.60;99.90;;;;;;5115648;28;20625;-41
2021/03/01 03:15:57;;;;;;;16.53;13.70;;;1.60;99.90;;;;;;5115519;28;20233;-41
2021/03/01 03:18:26;;;;;;;17.55;12.40;;;1.60;99.90;;;;;;5115848;28;20214;-41
2021/03/01 03:20:53;;;;;;;15.48;12.52;;;1.60;99.90;;;;;;5115550;28;20237;-40
2021/03/01 03:23:20;;;;;;;17.40;12.65;;;1.60;99.90;;;;;;5115241;28;20245;-40
2021/03/01 03:25:47;;;;;;;15.93;12.75;;;1.60;99.90;;;;;;5115628;28;20202;-40
2021/03/01 03:28:14;;;;;;;19.67;14.20;;;1.60;99.90;;;;;;5115937;28;20297;-41
2021/03/01 03:30:43;;;;;;;15.20;12.05;;;1.50;99.90;;;;;;5115429;28;20202;-42
2021/03/01 03:33:10;;;;;;;14.60;12.50;;;1.50;99.90;;;;;;5115154;28;20657;-40
2021/03/01 03:35:37;;;;;;;15.05;12.77;;;1.50;99.90;;;;;;5115145;28;20301;-40
2021/03/01 03:38:09;;;;;;;19.02;14.43;;;1.50;99.90;;;;;;5115333;28;20302;-40
2021/03/01 03:40:37;;;;;;;16.70;12.70;;;1.50;99.90;;;;;;5115112;28;20258;-41
2021/03/01 03:43:04;;;;;;;17.08;13.57;;;1.50;99.90;;;;;;5115017;28;20289;-41
2021/03/01 03:45:33;;;;;;;17.70;14.15;;;1.60;99.90;;;;;;5114914;28;20206;-43
2021/03/01 03:48:04;;;;;;;16.40;13.43;;;1.60;99.90;;;;;;5115159;28;20587;-41
2021/03/01 03:50:32;;;;;;;16.95;13.85;;;1.60;99.90;;;;;;5115041;28;20202;-41
2021/03/01 03:53:04;;;;;;;19.45;14.13;;;1.60;99.90;;;;;;5116492;28;20206;-40
2021/03/01 03:55:32;;;;;;;15.25;12.93;;;1.50;99.90;;;;;;5114778;28;20240;-40
2021/03/01 03:58:04;;;;;;;16.20;13.25;;;1.50;99.90;;;;;;5114977;28;20310;-40
2021/03/01 04:00:33;;;;;;;16.98;13.70;;;1.40;99.90;;;;;;5114587;28;20317;-40
2021/03/01 04:03:05;;;;;;;17.00;13.20;;;1.40;99.90;;;;;;5114639;28;20914;-40
2021/03/01 04:05:33;;;;;;;18.33;14.15;;;1.40;99.90;;;;;;5114702;28;20672;-40
2021/03/01 04:08:02;;;;;;;18.55;13.75;;;1.40;99.90;;;;;;5114389;28;20210;-40
2021/03/01 04:10:31;;;;;;;17.15;13.43;;;1.40;99.90;;;;;;5114514;28;20280;-41
2021/03/01 04:12:59;;;;;;;20.85;15.02;;;1.30;99.90;;;;;;5114602;28;20289;-40
2021/03/01 04:15:29;;;;;;;17.58;13.80;;;1.30;99.90;;;;;;5114504;28;20290;-40
2021/03/01 04:17:57;;;;;;;17.13;14.30;;;1.30;99.90;;;;;;5114242;28;20305;-39
2021/03/01 04:20:26;;;;;;;15.45;13.30;;;1.20;99.90;;;;;;5114076;28;20677;-39
2021/03/01 04:22:57;;;;;;;19.33;13.32;;;1.20;99.90;;;;;;5114369;28;20301;-39
2021/03/01 04:25:25;;;;;;;16.77;13.80;;;1.20;99.90;;;;;;5114344;28;20275;-39
2021/03/01 04:27:53;;;;;;;20.10;14.07;;;1.20;99.90;;;;;;5114099;28;20289;-40
2021/03/01 04:30:22;;;;;;;16.35;13.32;;;1.20;99.90;;;;;;5114001;28;20224;-40
2021/03/01 04:32:49;;;;;;;21.05;14.95;;;1.30;99.90;;;;;;5113950;28;20288;-39
2021/03/01 04:35:19;;;;;;;16.15;13.48;;;1.30;99.90;;;;;;5113760;28;20283;-40
2021/03/01 04:37:47;;;;;;;16.17;12.23;;;1.30;99.90;;;;;;5114016;28;20644;-41
2021/03/01 04:40:15;;;;;;;16.30;13.93;;;1.30;99.90;;;;;;5114312;28;20234;-39
2021/03/01 04:42:45;;;;;;;14.70;12.93;;;1.30;99.90;;;;;;5113688;28;20263;-40
2021/03/01 04:45:15;;;;;;;18.33;13.88;;;1.20;99.90;;;;;;5113727;28;20228;-38
2021/03/01 04:47:43;;;;;;;16.88;13.25;;;1.10;99.90;;;;;;5113563;28;20259;-38
2021/03/01 04:50:12;;;;;;;16.92;12.95;;;1.10;99.90;;;;;;5113623;28;20293;-39
2021/03/01 04:52:41;;;;;;;16.35;12.23;;;1.00;99.90;;;;;;5113760;28;20288;-38
2021/03/01 04:55:10;;;;;;;16.92;12.75;;;1.00;99.90;;;;;;5113574;28;20257;-39
2021/03/01 04:57:38;;;;;;;18.13;12.43;;;1.00;99.90;;;;;;5113258;28;20251;-40
2021/03/01 05:00:08;;;;;;;17.10;13.45;;;1.00;99.90;;;;;;5113285;28;20229;-39
2021/03/01 05:02:36;;;;;;;16.42;11.90;;;1.00;99.90;;;;;;5113231;27;20220;-39
2021/03/01 05:05:05;;;;;;;14.57;12.15;;;1.00;99.90;;;;;;5113203;28;20209;-39
2021/03/01 05:07:34;;;;;;;19.75;12.88;;;0.90;99.90;;;;;;5112995;27;20237;-39
2021/03/01 05:10:04;;;;;;;14.45;12.32;;;1.00;99.90;;;;;;5113070;28;20600;-39
2021/03/01 05:12:32;;;;;;;15.95;12.32;;;1.00;99.90;;;;;;5112987;28;20314;-40
2021/03/01 05:14:59;;;;;;;15.73;12.40;;;1.00;99.90;;;;;;5113410;28;20206;-40
2021/03/01 05:17:26;;;;;;;16.42;12.63;;;1.10;99.90;;;;;;5113312;28;20292;-40
2021/03/01 05:19:53;;;;;;;16.67;13.27;;;1.10;99.90;;;;;;5112770;28;20255;-40
2021/03/01 05:22:19;;;;;;;17.10;12.88;;;1.10;99.90;;;;;;5112884;28;20233;-39
2021/03/01 05:24:46;;;;;;;19.70;14.90;;;1.10;99.90;;;;;;5113057;28;20740;-40
2021/03/01 05:27:13;;;;;;;16.95;12.40;;;1.10;99.90;;;;;;5112758;28;20246;-40
2021/03/01 05:29:41;;;;;;;18.27;13.43;;;1.10;99.90;;;;;;5112613;28;20293;-41
2021/03/01 05:32:09;;;;;;;18.77;12.00;;;1.10;99.90;;;;;;5112862;28;20225;-40
2021/03/01 05:34:36;;;;;;;17.38;13.50;;;1.20;99.90;;;;;;5112697;28;20206;-39
2021/03/01 05:37:03;;;;;;;15.95;12.52;;;1.20;99.90;;;;;;5112894;28;20759;-40
2021/03/01 05:39:30;;;;;;;19.92;13.88;;;1.20;99.90;;;;;;5112756;28;20202;-41
2021/03/01 05:41:57;;;;;;;18.85;13.93;;;1.20;99.90;;;;;;5112894;28;20322;-39
2021/03/01 05:44:25;;;;;;;21.65;14.02;;;1.20;99.90;;;;;;5112949;28;20309;-40
2021/03/01 05:46:54;;;;;;;25.98;18.38;;;1.20;99.90;;;;;;5112843;28;20241;-40
2021/03/01 05:49:23;;;;;;;18.08;13.40;;;1.20;99.90;;;;;;5112747;28;20267;-41
2021/03/01 05:51:51;;;;;;;18.65;13.43;;;1.20;99.90;;;;;;5112620;28;20258;-39
2021/03/01 05:54:20;;;;;;;17.42;13.52;;;1.20;99.90;;;;;;5112559;28;20309;-41
2021/03/01 05:56:48;;;;;;;17.33;13.18;;;1.20;99.90;;;;;;5112794;28;20289;-41
2021/03/01 05:59:16;;;;;;;18.23;14.90;;;1.20;99.90;;;;;;5112718;28;20249;-44
2021/03/01 06:01:44;;;;;;;18.45;13.18;;;1.30;99.90;;;;;;5112673;28;20286;-40
2021/03/01 06:04:13;;;;;;;21.40;14.52;;;1.30;99.90;;;;;;5112575;28;20620;-41
2021/03/01 06:06:40;;;;;;;19.80;14.15;;;1.30;99.90;;;;;;5112515;28;20294;-39
2021/03/01 06:09:07;;;;;;;18.08;14.20;;;1.40;99.90;;;;;;5112620;28;20346;-39
2021/03/01 06:11:34;;;;;;;19.98;14.15;;;1.40;99.90;;;;;;5112428;28;20272;-40
2021/03/01 06:14:03;;;;;;;18.85;13.68;;;1.40;99.90;;;;;;5112406;28;20206;-39
2021/03/01 06:16:30;;;;;;;18.42;13.77;;;1.40;99.90;;;;;;5112619;28;20216;-39
2021/03/01 06:18:57;;;;;;;18.55;14.98;;;1.40;99.90;;;;;;5112232;28;20206;-40
2021/03/01 06:21:26;;;;;;;18.88;13.93;;;1.40;99.90;;;;;;5112071;28;20230;-39
2021/03/01 06:23:53;;;;;;;17.75;13.85;;;1.40;99.90;;;;;;5112896;28;20233;-39
2021/03/01 06:26:30;;;;;;;20.30;14.68;;;1.50;99.90;;;;;;5116581;28;20205;-38
2021/03/01 06:29:08;;;;;;;19.52;14.20;;;1.60;99.90;;;;;;5116514;28;20205;-39
2021/03/01 06:31:41;;;;;;;20.42;18.23;;;1.70;99.90;;;;;;5116348;28;20231;-39
2021/03/01 06:34:24;;;;;;;29.95;21.70;;;1.60;99.90;;;;;;5116549;28;20212;-39
2021/03/01 06:37:01;;;;;;;22.40;17.35;;;1.60;99.90;;;;;;5116369;28;20206;-39
2021/03/01 06:39:31;;;;;;;22.15;15.70;;;1.50;99.90;;;;;;5116375;28;20241;-38
2021/03/01 06:42:19;;;;;;;24.85;15.32;;;1.50;99.90;;;;;;5116134;28;20312;-39
2021/03/01 06:44:48;;;;;;;26.77;17.10;;;1.50;99.90;;;;;;5116250;28;20245;-39
2021/03/01 06:47:15;;;;;;;21.20;17.35;;;1.60;99.90;;;;;;5116212;28;20245;-39
2021/03/01 06:49:44;;;;;;;22.58;16.00;;;1.60;99.90;;;;;;5116046;28;20691;-40
2021/03/01 06:52:36;;;;;;;21.85;16.30;;;1.70;99.90;;;;;;5116062;28;20241;-40
2021/03/01 06:55:09;;;;;;;18.42;14.93;;;1.80;99.90;;;;;;5116150;28;20216;-40
2021/03/01 06:57:36;;;;;;;23.02;15.90;;;1.90;99.90;;;;;;5116147;28;20237;-42
2021/03/01 07:00:04;;;;;;;21.27;14.90;;;2.00;99.90;;;;;;5115682;28;20611;-41
2021/03/01 07:02:38;;;;;;;22.03;14.93;;;2.00;99.90;;;;;;5115728;28;20739;-42
2021/03/01 07:05:06;;;;;;;18.42;15.20;;;2.10;99.90;;;;;;5115676;28;20210;-41
2021/03/01 07:07:37;;;;;;;21.23;15.65;;;2.20;99.90;;;;;;5115681;28;20305;-41
2021/03/01 07:10:07;;;;;;;19.58;15.13;;;2.30;99.90;;;;;;5115519;28;20241;-41
2021/03/01 07:12:39;;;;;;;20.95;15.88;;;2.30;99.90;;;;;;5115694;28;20288;-42
2021/03/01 07:15:08;;;;;;;19.63;15.18;;;2.30;99.90;;;;;;5115474;28;20210;-41
2021/03/01 07:17:38;;;;;;;17.30;14.77;;;2.40;99.90;;;;;;5115355;28;20669;-40
2021/03/01 07:20:09;;;;;;;22.10;15.32;;;2.40;99.90;;;;;;5115691;28;20245;-41
2021/03/01 07:22:40;;;;;;;18.90;16.23;;;2.50;99.90;;;;;;5115561;28;20226;-41
2021/03/01 07:25:08;;;;;;;18.30;16.00;;;2.50;99.90;;;;;;5115464;28;20252;-41
2021/03/01 07:27:39;;;;;;;18.98;15.98;;;2.60;99.90;;;;;;5115218;28;20237;-40
2021/03/01 07:30:07;;;;;;;29.80;22.63;;;2.70;99.90;;;;;;5115310;28;20667;-41
2021/03/01 07:32:36;;;;;;;24.23;18.10;;;2.80;99.90;;;;;;5115500;28;20210;-39
2021/03/01 07:35:05;;;;;;;21.88;17.65;;;2.90;99.90;;;;;;5117429;28;20679;-39
2021/03/01 07:37:34;;;;;;;20.45;16.42;;;3.10;99.90;;;;;;5114418;28;20711;-41
2021/03/01 07:40:04;;;;;;;18.77;15.38;;;3.20;99.90;;;;;;5115205;28;20251;-40
2021/03/01 07:42:33;;;;;;;18.92;13.90;;;3.40;99.90;;;;;;5114904;28;20230;-40
2021/03/01 07:45:01;;;;;;;20.17;14.43;;;3.40;99.90;;;;;;5115005;28;20237;-41
2021/03/01 07:47:29;;;;;;;18.75;14.13;;;3.50;99.90;;;;;;5114835;28;20708;-40
2021/03/01 07:49:56;;;;;;;17.98;13.10;;;3.60;99.90;;;;;;5114962;28;20248;-40
2021/03/01 07:52:38;;;;;;;20.90;13.48;;;3.70;99.90;;;;;;5114835;28;20202;-40
2021/03/01 07:55:09;;;;;;;18.73;13.18;;;3.80;99.90;;;;;;5114491;28;20279;-40
2021/03/01 07:57:38;;;;;;;16.60;13.05;;;3.90;99.90;;;;;;5114579;28;20644;-40
2021/03/01 08:00:22;;;;;;;13.88;11.70;;;3.90;99.90;;;;;;5114509;28;20344;-39
2021/03/01 08:02:49;;;;;;;17.85;12.95;;;4.10;99.90;;;;;;5114505;28;20293;-40
2021/03/01 08:05:25;;;;;;;17.88;13.93;;;4.20;99.90;;;;;;5114576;28;20294;-40
2021/03/01 08:07:52;;;;;;;18.40;12.77;;;4.30;99.90;;;;;;5114693;28;20298;-40
2021/03/01 08:10:36;;;;;;;17.70;12.95;;;4.30;99.90;;;;;;5114329;28;20404;-41
2021/03/01 08:13:04;;;;;;;16.80;13.02;;;4.40;99.90;;;;;;5114414;28;20201;-40
2021/03/01 08:15:36;;;;;;;15.70;12.15;;;4.40;99.90;;;;;;5114462;28;20668;-40
2021/03/01 08:18:05;;;;;;;23.50;13.02;;;4.50;99.90;;;;;;5114318;28;20210;-40
2021/03/01 08:20:37;;;;;;;14.63;11.65;;;4.60;99.90;;;;;;5114241;28;20312;-40
2021/03/01 08:23:15;;;;;;;14.07;12.25;;;4.70;99.90;;;;;;5114231;28;20214;-40
2021/03/01 08:25:51;;;;;;;16.40;12.35;;;4.80;99.90;;;;;;5114349;28;20233;-40
2021/03/01 08:28:47;;;;;;;16.00;13.80;;;4.80;99.90;;;;;;5114167;28;20636;-42
2021/03/01 08:31:35;;;;;;;15.50;12.43;;;4.90;99.90;;;;;;5114475;28;20293;-39
2021/03/01 08:34:26;;;;;;;14.43;12.27;;;4.90;99.90;;;;;;5114074;28;20258;-39
2021/03/01 08:36:54;;;;;;;14.90;12.27;;;4.90;99.90;;;;;;5118875;28;20190;-41
2021/03/01 08:39:55;;;;;;;15.05;11.95;;;5.00;99.90;;;;;;5114543;28;20672;-40
2021/03/01 08:42:48;;;;;;;17.42;13.18;;;5.10;99.90;;;;;;5113017;28;20265;-41
2021/03/01 08:45:34;;;;;;;13.88;11.95;;;5.30;99.90;;;;;;5113822;28;20233;-40
2021/03/01 08:48:04;;;;;;;16.52;11.77;;;5.40;99.90;;;;;;5112454;28;20214;-41
2021/03/01 08:50:33;;;;;;;14.48;12.02;;;5.50;99.90;;;;;;5113726;28;20376;-42
2021/03/01 08:53:17;;;;;;;14.90;12.82;;;5.60;99.90;;;;;;5113479;28;20710;-40
2021/03/01 08:55:44;;;;;;;16.25;11.63;;;5.70;99.90;;;;;;5113624;28;20209;-40
2021/03/01 08:58:14;;;;;;;18.83;12.10;;;5.80;99.90;;;;;;5113473;28;20289;-41
2021/03/01 09:00:52;;;;;;;19.83;12.85;;;5.80;99.90;;;;;;5113366;28;20292;-41
2021/03/01 09:03:28;;;;;;;13.52;10.23;;;5.90;99.90;;;;;;5113375;28;20211;-43
2021/03/01 09:06:03;;;;;;;18.25;12.43;;;6.00;99.90;;;;;;5113116;28;20263;-40
2021/03/01 09:08:32;;;;;;;19.83;11.77;;;6.10;99.90;;;;;;5113523;28;20250;-40
2021/03/01 09:11:01;;;;;;;12.43;10.38;;;6.20;99.90;;;;;;5112876;28;20320;-40
2021/03/01 09:13:30;;;;;;;14.52;11.75;;;6.30;99.90;;;;;;5113132;28;20572;-40
2021/03/01 09:16:05;;;;;;;13.07;10.77;;;6.40;99.80;;;;;;5112885;28;20242;-40
2021/03/01 09:18:33;;;;;;;16.48;12.15;;;6.50;99.80;;;;;;5113341;28;20193;-40
2021/03/01 09:21:00;;;;;;;13.85;10.90;;;6.50;99.70;;;;;;5113021;28;20257;-40
2021/03/01 09:23:41;;;;;;;13.23;10.88;;;6.60;99.50;;;;;;5112832;28;20747;-40
2021/03/01 09:26:17;;;;;;;15.02;11.98;;;6.70;99.40;;;;;;5113006;28;20297;-40
2021/03/01 09:28:46;;;;;;;15.07;11.00;;;6.80;99.20;;;;;;5112683;28;20287;-40
2021/03/01 09:31:27;;;;;;;15.18;10.57;;;6.90;98.80;;;;;;5112703;28;20238;-41
2021/03/01 09:33:55;;;;;;;16.88;10.30;;;7.00;98.70;;;;;;5112769;28;20672;-41
2021/03/01 09:36:27;;;;;;;12.90;10.38;;;7.10;98.40;;;;;;5112806;28;20269;-39
2021/03/01 09:38:54;;;;;;;14.25;10.65;;;7.20;98.00;;;;;;5112853;28;20216;-39
2021/03/01 09:41:22;;;;;;;10.55;9.45;;;7.30;97.80;;;;;;5112474;28;20593;-40
2021/03/01 09:43:51;;;;;;;13.77;9.77;;;7.30;97.20;;;;;;5112771;28;20668;-40
2021/03/01 09:46:19;;;;;;;12.30;10.13;;;7.30;96.80;;;;;;5112660;28;20301;-40
2021/03/01 09:48:49;;;;;;;13.68;9.85;;;7.30;96.70;;;;;;5112653;28;20286;-39
2021/03/01 09:51:18;;;;;;;10.27;9.00;;;7.30;96.60;;;;;;5112672;28;20233;-40
2021/03/01 09:53:45;;;;;;;13.48;9.45;;;7.30;96.20;;;;;;5112279;28;20259;-40
2021/03/01 09:56:12;;;;;;;9.93;8.82;;;7.40;96.10;;;;;;5112560;28;20297;-40
2021/03/01 09:58:41;;;;;;;10.52;9.13;;;7.50;95.90;;;;;;5112121;28;20206;-40
2021/03/01 10:01:13;;;;;;;11.25;9.73;;;7.60;95.30;;;;;;5112178;28;20749;-40
2021/03/01 10:03:42;;;;;;;10.63;9.25;;;7.70;94.90;;;;;;5112792;28;20270;-40
2021/03/01 10:06:10;;;;;;;10.43;9.32;;;7.80;94.80;;;;;;5112384;28;20233;-40
2021/03/01 10:08:38;;;;;;;11.20;9.05;;;7.90;94.50;;;;;;5112779;28;20298;-40
2021/03/01 10:11:19;;;;;;;10.65;9.55;;;7.90;94.00;;;;;;5112055;28;20811;-40
2021/03/01 10:13:47;;;;;;;12.63;9.75;;;8.00;93.80;;;;;;5112230;28;20292;-40
2021/03/01 10:16:28;;;;;;;13.52;9.82;;;8.10;93.30;;;;;;5112290;28;20300;-41
2021/03/01 10:18:56;;;;;;;11.68;8.52;;;8.20;92.70;;;;;;5112070;28;20337;-41
2021/03/01 10:21:31;;;;;;;11.27;9.65;;;8.30;93.00;;;;;;5112151;28;20341;-41
2021/03/01 10:24:01;;;;;;;13.57;9.02;;;8.40;92.50;;;;;;5112083;28;20762;-41
2021/03/01 10:26:28;;;;;;;12.13;9.27;;;8.50;92.00;;;;;;5112171;28;20206;-41
2021/03/01 10:28:58;;;;;;;12.30;9.88;;;8.60;92.00;;;;;;5111922;28;20697;-41
2021/03/01 10:31:31;;;;;;;10.75;8.65;;;8.70;92.00;;;;;;5112449;28;21121;-41
2021/03/01 10:34:02;;;;;;;12.13;9.10;;;8.80;91.90;;;;;;5112081;28;20210;-41
2021/03/01 10:36:33;;;;;;;32.30;22.95;;;8.80;91.60;;;;;;5111787;28;20237;-41
2021/03/01 10:39:07;;;;;;;13.20;9.05;;;8.90;91.40;;;;;;5112168;28;20733;-41
2021/03/01 10:41:40;;;;;;;14.02;9.45;;;8.90;91.40;;;;;;5111826;28;20244;-41
2021/03/01 10:44:09;;;;;;;9.55;8.55;;;9.10;90.60;;;;;;5112351;28;20213;-41
2021/03/01 10:46:40;;;;;;;11.13;9.50;;;9.20;90.90;;;;;;5112227;28;20313;-42
2021/03/01 10:49:25;;;;;;;10.70;9.05;;;9.20;90.60;;;;;;5111961;28;20621;-40
2021/03/01 10:51:53;;;;;;;10.73;8.82;;;9.30;90.50;;;;;;5111972;28;20198;-40
2021/03/01 10:54:21;;;;;;;10.48;9.38;;;9.40;90.50;;;;;;5111800;28;20210;-40
2021/03/01 10:56:48;;;;;;;10.98;8.85;;;9.60;90.40;;;;;;5112095;28;20668;-41
2021/03/01 10:59:15;;;;;;;26.88;20.88;;;9.70;89.50;;;;;;5111980;28;20293;-41
2021/03/01 11:01:46;;;;;;;12.40;9.55;;;9.80;89.50;;;;;;5111780;28;20222;-41
2021/03/01 11:04:14;;;;;;;9.93;8.90;;;9.90;88.90;;;;;;5111785;28;20684;-41
2021/03/01 11:06:42;;;;;;;10.38;8.93;;;10.00;88.50;;;;;;5111552;28;20206;-41
2021/03/01 11:09:10;;;;;;;10.55;8.25;;;10.00;87.60;;;;;;5111540;28;20210;-42
2021/03/01 11:11:39;;;;;;;10.10;9.18;;;10.10;87.00;;;;;;5113324;28;20237;-41
2021/03/01 11:14:06;;;;;;;8.80;7.90;;;10.20;85.90;;;;;;5115649;28;20301;-41
2021/03/01 11:16:33;;;;;;;11.00;8.52;;;10.20;85.70;;;;;;5115752;28;20598;-44
2021/03/01 11:19:02;;;;;;;9.95;8.95;;;10.30;84.50;;;;;;5115579;28;20679;-42
2021/03/01 11:21:29;;;;;;;9.27;7.50;;;10.40;84.00;;;;;;5115292;28;20248;-40
2021/03/01 11:23:56;;;;;;;9.13;7.03;;;10.40;83.10;;;;;;5115496;28;20236;-41
2021/03/01 11:26:24;;;;;;;9.82;8.25;;;10.50;83.20;;;;;;5115418;28;20297;-41
2021/03/01 11:28:52;;;;;;;9.02;7.47;;;10.50;82.30;;;;;;5115397;28;20383;-40
2021/03/01 11:31:19;;;;;;;11.25;7.95;;;10.60;81.40;;;;;;5115384;28;20293;-40
2021/03/01 11:33:47;;;;;;;11.82;8.13;;;10.70;81.30;;;;;;5115154;28;20213;-41
2021/03/01 11:36:15;;;;;;;10.25;8.32;;;10.70;80.60;;;;;;5115387;28;20205;-40
2021/03/01 11:38:43;;;;;;;9.98;8.95;;;10.70;81.30;;;;;;5115340;28;20340;-42
2021/03/01 11:41:14;;;;;;;9.25;8.02;;;10.80;80.90;;;;;;5115082;28;20312;-42
2021/03/01 11:43:47;;;;;;;9.02;7.90;;;10.80;80.80;;;;;;5115017;28;20228;-42
2021/03/01 11:46:14;;;;;;;9.35;7.93;;;10.90;80.90;;;;;;5114711;28;20536;-42
2021/03/01 11:48:42;;;;;;;11.43;7.70;;;10.80;81.00;;;;;;5115198;28;20210;-42
2021/03/01 11:51:10;;;;;;;7.93;6.97;;;10.90;80.20;;;;;;5115063;28;20550;-40
2021/03/01 11:53:40;;;;;;;8.88;7.85;;;11.00;79.50;;;;;;5114721;28;20262;-41
2021/03/01 11:56:07;;;;;;;15.40;7.60;;;11.10;79.50;;;;;;5114772;28;20206;-41
2021/03/01 11:58:34;;;;;;;9.05;7.70;;;11.10;79.30;;;;;;5114714;28;20614;-41
2021/03/01 12:01:01;;;;;;;8.02;7.00;;;11.20;79.00;;;;;;5114571;28;20229;-41
2021/03/01 12:03:30;;;;;;;8.75;7.05;;;11.30;78.90;;;;;;5114700;28;20274;-40
2021/03/01 12:05:58;;;;;;;9.27;7.30;;;11.30;77.80;;;;;;5114603;28;20687;-41
2021/03/01 12:08:25;;;;;;;8.93;7.35;;;11.40;78.40;;;;;;5114437;28;20205;-42
2021/03/01 12:10:53;;;;;;;9.88;8.88;;;11.50;78.20;;;;;;5114672;28;20234;-42
2021/03/01 12:13:20;;;;;;;50.80;34.95;;;11.60;78.00;;;;;;5114330;28;20610;-43
2021/03/01 12:15:47;;;;;;;10.27;9.20;;;11.60;78.00;;;;;;5114405;28;20236;-41
2021/03/01 12:18:15;;;;;;;14.43;12.90;;;11.60;78.00;;;;;;5114299;28;20255;-42
2021/03/01 12:20:42;;;;;;;10.68;8.32;;;11.70;78.90;;;;;;5114526;27;20297;-42
2021/03/01 12:23:10;;;;;;;9.30;8.07;;;11.80;78.20;;;;;;5113719;28;20561;-41
2021/03/01 12:25:37;;;;;;;9.98;8.98;;;11.90;78.20;;;;;;5114523;28;20233;-42
2021/03/01 12:28:06;;;;;;;11.35;8.88;;;12.00;78.90;;;;;;5113989;28;20216;-40
2021/03/01 12:30:33;;;;;;;9.25;8.35;;;12.10;78.30;;;;;;5114075;28;20297;-41
2021/03/01 12:33:06;;;;;;;10.23;8.82;;;12.10;78.40;;;;;;5113900;28;20293;-41
2021/03/01 12:35:34;;;;;;;12.02;7.97;;;12.20;78.50;;;;;;5113898;28;20664;-41
2021/03/01 12:38:02;;;;;;;11.70;8.32;;;12.20;78.20;;;;;;5113981;28;20210;-45
2021/03/01 12:40:29;;;;;;;9.10;8.13;;;12.20;77.60;;;;;;5113809;28;20660;-42
2021/03/01 12:42:59;;;;;;;8.80;7.97;;;12.20;77.50;;;;;;5113882;28;20233;-40
2021/03/01 12:45:27;;;;;;;72.65;50.85;;;12.20;77.40;;;;;;5113819;28;20210;-41
2021/03/01 12:47:54;;;;;;;15.00;13.32;;;12.20;77.30;;;;;;5113636;28;20294;-41
2021/03/01 12:50:22;;;;;;;18.58;16.30;;;12.30;77.50;;;;;;5113485;28;20257;-42